Airfield :
LOGIN :

Register | Disclaimer

   EN    FR    IT 

 










Legend :    VFR   Marginal VFR   IFR   Intensive IFR   Very Intensive IFR
Visi :
Ceiling :
>= 8 km
>= 3000ft
5 to 8 km
1000 to 3000 ft
1500m to 5 km
500 to 1000 ft
800 to 1500m
200 to 500 ft
< 800m
< 200 ft
Symbols :   Thunderstorms  Fog  Heavy snow  Heavy precipitations  Wind > 20 kt
SIGMETs :     Misc.  Thunderstorms  Icing  Turbulence  Mountain Waves  Volcanic Ashes






- Airport Elevation : 74 ft
- IATA code : LRH


LFBH - La Rochelle Ile de Ré

CURRENT METAR :
  • 222200Z AUTO 24010KT 9999 FEW031 08/05 Q1004 TEMPO 18010KT 3000 SHRA SCT025CB BKN030TCU

EXPIRED METARs :
  • 222130Z AUTO 27009KT 9999 FEW040 SCT052 07/05 Q1004 TEMPO 18010KT 3000 SHRA SCT025CB BKN030TCU
  • 222100Z AUTO 26013KT 9999 FEW027/// BKN039/// BKN060/// ///TCU 08/06 Q1004 TEMPO 30020G30KT 3000 SHRA SCT025CB BKN030TCU
  • 222030Z AUTO 28016KT 9999 -RA SCT034/// BKN058/// BKN074/// ///TCU 07/04 Q1004 TEMPO 30020G30KT 3000 SHRA SCT025CB BKN030TCU
  • 222000Z AUTO 25007KT 9999 ///TCU 07/05 Q1004 TEMPO 30020G30KT 3000 SHRA SCT025CB BKN030TCU
  • 221930Z AUTO 27008KT 9999 FEW038/// SCT066/// ///TCU 06/04 Q1004 TEMPO 30020G30KT 3000 SHRA SCT025CB BKN030TCU

TAF TAF LFBH
Valid from the 22 at 18:00 until the 23 at 18:00 UTC


221700Z 2218/2318 27010KT 9999 SCT030
TEMPO 2218/2223 30020G30KT 3000 SHRA SCT025CB BKN030TCU
TEMPO 2223/2302 18010KT
TEMPO 2302/2304 2000 SHRA BKN015CB
BECMG 2304/2306 27020G30KT
BECMG 2306/2308 27030G45KT
TEMPO 2308/2312 27035G55KT
BECMG 2312/2314 33010KT
BECMG 2316/2318 VRB03KT
ATIS : +33 5 46 00 13 92



MET'MAP, your aeronautical weather chart ! - Copyright ORBIFLY December 2007 - Disclaimer

ORBIFLY MET'MAP TEAM :

Programming & Development : Alexandra Zaïnal
Concept & original design : Baudouin d'Aumeries
Assistance for programming : Marc-Olivier Méhu
Technical & hardware support : Manuel Goepfert

Contact : metmap@orbifly.com




SOURCES & CREDITS :

   NOAA